sensor_id;sensor_type;location;lat;lon;timestamp;temperature;humidity
3310;DHT22;1667;53.238;10.394;2023-05-27T00:00:58;15.80;81.10
3310;DHT22;1667;53.238;10.394;2023-05-27T00:05:57;15.70;81.00
3310;DHT22;1667;53.238;10.394;2023-05-27T00:10:57;15.60;80.70
3310;DHT22;1667;53.238;10.394;2023-05-27T00:15:55;15.60;80.90
3310;DHT22;1667;53.238;10.394;2023-05-27T00:20:54;15.50;81.00
3310;DHT22;1667;53.238;10.394;2023-05-27T00:25:53;15.50;81.10
3310;DHT22;1667;53.238;10.394;2023-05-27T00:30:53;15.40;81.10
3310;DHT22;1667;53.238;10.394;2023-05-27T00:35:52;15.40;81.20
3310;DHT22;1667;53.238;10.394;2023-05-27T00:40:53;15.30;81.20
3310;DHT22;1667;53.238;10.394;2023-05-27T00:45:53;15.30;81.60
3310;DHT22;1667;53.238;10.394;2023-05-27T00:50:52;15.20;81.30
3310;DHT22;1667;53.238;10.394;2023-05-27T00:55:52;15.20;81.20
3310;DHT22;1667;53.238;10.394;2023-05-27T01:00:53;15.10;81.00
3310;DHT22;1667;53.238;10.394;2023-05-27T01:06:08;15.10;81.30
3310;DHT22;1667;53.238;10.394;2023-05-27T01:11:10;15.00;81.00
3310;DHT22;1667;53.238;10.394;2023-05-27T01:16:13;14.90;82.10
3310;DHT22;1667;53.238;10.394;2023-05-27T01:21:13;14.80;81.10
3310;DHT22;1667;53.238;10.394;2023-05-27T01:26:15;14.80;81.30
3310;DHT22;1667;53.238;10.394;2023-05-27T01:31:19;14.70;81.30
3310;DHT22;1667;53.238;10.394;2023-05-27T01:36:22;14.60;81.40
3310;DHT22;1667;53.238;10.394;2023-05-27T01:41:24;14.60;81.70
3310;DHT22;1667;53.238;10.394;2023-05-27T01:46:23;14.50;81.50
3310;DHT22;1667;53.238;10.394;2023-05-27T01:51:22;14.50;81.60
3310;DHT22;1667;53.238;10.394;2023-05-27T01:56:20;14.50;81.80
3310;DHT22;1667;53.238;10.394;2023-05-27T02:01:21;14.40;81.70
3310;DHT22;1667;53.238;10.394;2023-05-27T02:06:22;14.30;81.90
3310;DHT22;1667;53.238;10.394;2023-05-27T02:11:21;14.30;82.40
3310;DHT22;1667;53.238;10.394;2023-05-27T02:16:23;14.20;82.00
3310;DHT22;1667;53.238;10.394;2023-05-27T02:21:22;14.20;82.30
3310;DHT22;1667;53.238;10.394;2023-05-27T02:26:20;14.20;82.20
3310;DHT22;1667;53.238;10.394;2023-05-27T02:31:19;14.10;82.00
3310;DHT22;1667;53.238;10.394;2023-05-27T02:36:20;14.00;81.90
3310;DHT22;1667;53.238;10.394;2023-05-27T02:41:21;14.00;82.00
3310;DHT22;1667;53.238;10.394;2023-05-27T02:46:20;13.90;82.10
3310;DHT22;1667;53.238;10.394;2023-05-27T02:51:21;13.90;81.90
3310;DHT22;1667;53.238;10.394;2023-05-27T02:56:19;13.80;81.60
3310;DHT22;1667;53.238;10.394;2023-05-27T03:01:19;13.80;82.40
3310;DHT22;1667;53.238;10.394;2023-05-27T03:06:17;13.80;82.30
3310;DHT22;1667;53.238;10.394;2023-05-27T03:11:17;13.70;81.90
3310;DHT22;1667;53.238;10.394;2023-05-27T03:16:15;13.60;82.00
3310;DHT22;1667;53.238;10.394;2023-05-27T03:21:17;13.60;82.00
3310;DHT22;1667;53.238;10.394;2023-05-27T03:26:17;13.50;82.20
3310;DHT22;1667;53.238;10.394;2023-05-27T03:31:17;13.50;82.20
3310;DHT22;1667;53.238;10.394;2023-05-27T03:36:42;13.40;82.10
3310;DHT22;1667;53.238;10.394;2023-05-27T03:41:48;13.40;82.30
3310;DHT22;1667;53.238;10.394;2023-05-27T03:46:47;13.40;82.30
3310;DHT22;1667;53.238;10.394;2023-05-27T03:51:46;13.30;82.70
3310;DHT22;1667;53.238;10.394;2023-05-27T03:56:44;13.30;83.00
3310;DHT22;1667;53.238;10.394;2023-05-27T04:01:44;13.30;82.90
3310;DHT22;1667;53.238;10.394;2023-05-27T04:06:44;13.30;83.10
3310;DHT22;1667;53.238;10.394;2023-05-27T04:11:45;13.30;83.40
3310;DHT22;1667;53.238;10.394;2023-05-27T04:16:45;13.30;83.80
3310;DHT22;1667;53.238;10.394;2023-05-27T04:21:44;13.30;84.00
3310;DHT22;1667;53.238;10.394;2023-05-27T04:26:43;13.30;84.50
3310;DHT22;1667;53.238;10.394;2023-05-27T04:31:46;13.40;85.10
3310;DHT22;1667;53.238;10.394;2023-05-27T04:36:49;13.40;85.40
3310;DHT22;1667;53.238;10.394;2023-05-27T04:41:52;13.40;85.90
3310;DHT22;1667;53.238;10.394;2023-05-27T04:46:57;13.50;86.50
3310;DHT22;1667;53.238;10.394;2023-05-27T04:51:56;13.60;87.50
3310;DHT22;1667;53.238;10.394;2023-05-27T04:56:54;13.60;87.70
3310;DHT22;1667;53.238;10.394;2023-05-27T05:02:00;13.70;88.00
3310;DHT22;1667;53.238;10.394;2023-05-27T05:07:19;13.80;88.20
3310;DHT22;1667;53.238;10.394;2023-05-27T05:12:20;13.90;88.40
3310;DHT22;1667;53.238;10.394;2023-05-27T05:17:21;14.00;88.60
3310;DHT22;1667;53.238;10.394;2023-05-27T05:22:21;14.10;89.10
3310;DHT22;1667;53.238;10.394;2023-05-27T05:27:21;14.20;89.70
3310;DHT22;1667;53.238;10.394;2023-05-27T05:32:21;14.30;90.20
3310;DHT22;1667;53.238;10.394;2023-05-27T05:37:20;14.50;90.80
3310;DHT22;1667;53.238;10.394;2023-05-27T05:42:20;14.60;92.10
3310;DHT22;1667;53.238;10.394;2023-05-27T05:47:19;14.80;91.50
3310;DHT22;1667;53.238;10.394;2023-05-27T05:52:28;14.90;92.60
3310;DHT22;1667;53.238;10.394;2023-05-27T05:57:27;15.00;91.20
3310;DHT22;1667;53.238;10.394;2023-05-27T06:02:32;15.10;90.40
3310;DHT22;1667;53.238;10.394;2023-05-27T06:14:20;15.40;91.70
3310;DHT22;1667;53.238;10.394;2023-05-27T06:19:22;15.60;92.20
3310;DHT22;1667;53.238;10.394;2023-05-27T06:24:20;16.00;95.90
3310;DHT22;1667;53.238;10.394;2023-05-27T06:29:29;16.50;95.10
3310;DHT22;1667;53.238;10.394;2023-05-27T06:34:28;16.80;93.00
3310;DHT22;1667;53.238;10.394;2023-05-27T06:39:26;16.70;91.40
3310;DHT22;1667;53.238;10.394;2023-05-27T06:44:25;16.70;93.10
3310;DHT22;1667;53.238;10.394;2023-05-27T06:49:30;17.20;92.00
3310;DHT22;1667;53.238;10.394;2023-05-27T06:54:32;17.30;91.60
3310;DHT22;1667;53.238;10.394;2023-05-27T06:59:51;17.30;91.30
3310;DHT22;1667;53.238;10.394;2023-05-27T07:04:51;17.40;91.70
3310;DHT22;1667;53.238;10.394;2023-05-27T07:09:53;17.60;91.30
3310;DHT22;1667;53.238;10.394;2023-05-27T07:14:52;17.70;90.60
3310;DHT22;1667;53.238;10.394;2023-05-27T07:19:55;18.20;93.70
3310;DHT22;1667;53.238;10.394;2023-05-27T07:24:54;18.60;93.00
3310;DHT22;1667;53.238;10.394;2023-05-27T07:29:55;18.80;93.50
3310;DHT22;1667;53.238;10.394;2023-05-27T07:35:11;18.90;91.00
3310;DHT22;1667;53.238;10.394;2023-05-27T07:40:10;18.80;90.30
3310;DHT22;1667;53.238;10.394;2023-05-27T07:45:10;18.90;90.50
3310;DHT22;1667;53.238;10.394;2023-05-27T07:50:11;19.00;90.90
3310;DHT22;1667;53.238;10.394;2023-05-27T07:55:14;19.40;91.20
3310;DHT22;1667;53.238;10.394;2023-05-27T08:00:14;19.60;90.40
3310;DHT22;1667;53.238;10.394;2023-05-27T08:05:23;19.90;91.70
3310;DHT22;1667;53.238;10.394;2023-05-27T08:10:34;20.20;90.20
3310;DHT22;1667;53.238;10.394;2023-05-27T08:15:51;20.10;88.30
3310;DHT22;1667;53.238;10.394;2023-05-27T08:21:00;20.30;90.10
3310;DHT22;1667;53.238;10.394;2023-05-27T08:26:06;20.80;87.80
3310;DHT22;1667;53.238;10.394;2023-05-27T08:31:19;20.90;87.60
3310;DHT22;1667;53.238;10.394;2023-05-27T08:36:24;20.80;88.20
3310;DHT22;1667;53.238;10.394;2023-05-27T08:41:24;20.90;87.40
3310;DHT22;1667;53.238;10.394;2023-05-27T08:46:26;20.80;86.90
3310;DHT22;1667;53.238;10.394;2023-05-27T08:51:28;21.20;87.50
3310;DHT22;1667;53.238;10.394;2023-05-27T09:03:15;22.30;84.60
3310;DHT22;1667;53.238;10.394;2023-05-27T09:08:16;22.40;82.60
3310;DHT22;1667;53.238;10.394;2023-05-27T09:13:25;22.90;82.00
3310;DHT22;1667;53.238;10.394;2023-05-27T09:18:25;23.30;81.60
3310;DHT22;1667;53.238;10.394;2023-05-27T09:23:25;23.60;80.10
3310;DHT22;1667;53.238;10.394;2023-05-27T09:28:25;23.30;79.80
3310;DHT22;1667;53.238;10.394;2023-05-27T09:33:23;23.60;78.30
3310;DHT22;1667;53.238;10.394;2023-05-27T09:38:22;24.00;76.80
3310;DHT22;1667;53.238;10.394;2023-05-27T09:43:23;24.50;75.60
3310;DHT22;1667;53.238;10.394;2023-05-27T09:48:22;24.80;77.50
3310;DHT22;1667;53.238;10.394;2023-05-27T09:53:21;24.80;78.60
3310;DHT22;1667;53.238;10.394;2023-05-27T09:58:22;24.90;76.70
3310;DHT22;1667;53.238;10.394;2023-05-27T10:03:21;24.90;76.90
3310;DHT22;1667;53.238;10.394;2023-05-27T10:08:20;25.00;78.20
3310;DHT22;1667;53.238;10.394;2023-05-27T10:13:24;25.20;76.10
3310;DHT22;1667;53.238;10.394;2023-05-27T10:18:25;25.50;72.80
3310;DHT22;1667;53.238;10.394;2023-05-27T10:23:26;25.80;71.70
3310;DHT22;1667;53.238;10.394;2023-05-27T10:28:28;25.50;74.10
3310;DHT22;1667;53.238;10.394;2023-05-27T10:33:29;25.80;70.80
3310;DHT22;1667;53.238;10.394;2023-05-27T10:38:28;26.00;71.60
3310;DHT22;1667;53.238;10.394;2023-05-27T10:43:29;26.20;72.60
3310;DHT22;1667;53.238;10.394;2023-05-27T10:48:28;26.20;72.40
3310;DHT22;1667;53.238;10.394;2023-05-27T10:53:28;26.30;70.90
3310;DHT22;1667;53.238;10.394;2023-05-27T10:58:29;26.50;72.50
3310;DHT22;1667;53.238;10.394;2023-05-27T11:03:31;27.00;67.30
3310;DHT22;1667;53.238;10.394;2023-05-27T11:08:30;27.60;64.20
3310;DHT22;1667;53.238;10.394;2023-05-27T11:13:35;28.10;63.00
3310;DHT22;1667;53.238;10.394;2023-05-27T11:18:36;27.90;64.50
3310;DHT22;1667;53.238;10.394;2023-05-27T11:23:36;28.00;61.80
3310;DHT22;1667;53.238;10.394;2023-05-27T11:28:38;27.80;62.30
3310;DHT22;1667;53.238;10.394;2023-05-27T11:33:43;27.50;67.40
3310;DHT22;1667;53.238;10.394;2023-05-27T11:38:51;27.70;64.30
3310;DHT22;1667;53.238;10.394;2023-05-27T11:43:55;28.30;60.30
3310;DHT22;1667;53.238;10.394;2023-05-27T11:48:54;28.40;63.70
3310;DHT22;1667;53.238;10.394;2023-05-27T11:53:54;28.50;63.20
3310;DHT22;1667;53.238;10.394;2023-05-27T11:58:55;28.60;62.90
3310;DHT22;1667;53.238;10.394;2023-05-27T12:03:54;28.70;59.70
3310;DHT22;1667;53.238;10.394;2023-05-27T12:08:52;28.60;61.10
3310;DHT22;1667;53.238;10.394;2023-05-27T12:13:54;28.70;58.40
3310;DHT22;1667;53.238;10.394;2023-05-27T12:18:53;28.90;58.40
3310;DHT22;1667;53.238;10.394;2023-05-27T12:23:52;29.00;58.90
3310;DHT22;1667;53.238;10.394;2023-05-27T12:28:50;29.10;59.20
3310;DHT22;1667;53.238;10.394;2023-05-27T12:33:50;29.10;58.10
3310;DHT22;1667;53.238;10.394;2023-05-27T12:38:49;29.10;58.50
3310;DHT22;1667;53.238;10.394;2023-05-27T12:43:47;29.20;56.60
3310;DHT22;1667;53.238;10.394;2023-05-27T12:48:46;29.20;57.10
3310;DHT22;1667;53.238;10.394;2023-05-27T12:53:46;29.20;58.80
3310;DHT22;1667;53.238;10.394;2023-05-27T12:58:45;29.20;56.70
3310;DHT22;1667;53.238;10.394;2023-05-27T13:03:44;29.20;56.60
3310;DHT22;1667;53.238;10.394;2023-05-27T13:08:43;29.30;57.60
3310;DHT22;1667;53.238;10.394;2023-05-27T13:13:43;29.30;59.20
3310;DHT22;1667;53.238;10.394;2023-05-27T13:18:41;29.30;58.70
3310;DHT22;1667;53.238;10.394;2023-05-27T13:23:40;29.40;59.20
3310;DHT22;1667;53.238;10.394;2023-05-27T13:28:39;29.40;56.90
3310;DHT22;1667;53.238;10.394;2023-05-27T13:33:40;29.60;57.20
3310;DHT22;1667;53.238;10.394;2023-05-27T13:45:28;29.70;56.50
3310;DHT22;1667;53.238;10.394;2023-05-27T13:50:28;29.60;55.50
3310;DHT22;1667;53.238;10.394;2023-05-27T13:55:28;29.70;56.50
3310;DHT22;1667;53.238;10.394;2023-05-27T14:00:27;29.70;56.70
3310;DHT22;1667;53.238;10.394;2023-05-27T14:05:28;29.70;56.70
3310;DHT22;1667;53.238;10.394;2023-05-27T14:10:27;29.60;56.30
3310;DHT22;1667;53.238;10.394;2023-05-27T14:15:27;29.50;56.80
3310;DHT22;1667;53.238;10.394;2023-05-27T14:20:29;29.50;55.90
3310;DHT22;1667;53.238;10.394;2023-05-27T14:25:28;29.50;55.20
3310;DHT22;1667;53.238;10.394;2023-05-27T14:30:26;29.40;54.30
3310;DHT22;1667;53.238;10.394;2023-05-27T14:35:28;29.10;54.10
3310;DHT22;1667;53.238;10.394;2023-05-27T14:40:27;29.30;54.20
3310;DHT22;1667;53.238;10.394;2023-05-27T14:45:26;29.10;54.60
3310;DHT22;1667;53.238;10.394;2023-05-27T14:50:24;28.90;55.40
3310;DHT22;1667;53.238;10.394;2023-05-27T14:55:24;28.80;55.80
3310;DHT22;1667;53.238;10.394;2023-05-27T15:00:22;28.50;54.10
3310;DHT22;1667;53.238;10.394;2023-05-27T15:05:21;28.30;53.90
3310;DHT22;1667;53.238;10.394;2023-05-27T15:10:20;28.30;55.00
3310;DHT22;1667;53.238;10.394;2023-05-27T15:15:20;28.00;53.60
3310;DHT22;1667;53.238;10.394;2023-05-27T15:20:18;27.80;54.90
3310;DHT22;1667;53.238;10.394;2023-05-27T15:25:17;27.70;55.00
3310;DHT22;1667;53.238;10.394;2023-05-27T15:30:16;27.70;55.40
3310;DHT22;1667;53.238;10.394;2023-05-27T15:35:16;27.40;54.40
3310;DHT22;1667;53.238;10.394;2023-05-27T15:40:15;27.30;55.10
3310;DHT22;1667;53.238;10.394;2023-05-27T15:45:13;27.40;56.90
3310;DHT22;1667;53.238;10.394;2023-05-27T15:50:12;27.60;59.30
3310;DHT22;1667;53.238;10.394;2023-05-27T15:55:12;27.60;56.10
3310;DHT22;1667;53.238;10.394;2023-05-27T16:00:11;27.30;57.00
3310;DHT22;1667;53.238;10.394;2023-05-27T16:11:38;27.10;56.40
3310;DHT22;1667;53.238;10.394;2023-05-27T16:16:37;26.60;56.30
3310;DHT22;1667;53.238;10.394;2023-05-27T16:21:35;26.60;56.40
3310;DHT22;1667;53.238;10.394;2023-05-27T16:26:34;26.50;56.60
3310;DHT22;1667;53.238;10.394;2023-05-27T16:31:33;26.40;57.80
3310;DHT22;1667;53.238;10.394;2023-05-27T16:36:32;26.30;57.10
3310;DHT22;1667;53.238;10.394;2023-05-27T16:41:30;26.20;58.80
3310;DHT22;1667;53.238;10.394;2023-05-27T16:46:29;26.20;59.00
3310;DHT22;1667;53.238;10.394;2023-05-27T16:51:29;26.10;57.20
3310;DHT22;1667;53.238;10.394;2023-05-27T16:56:28;25.90;58.60
3310;DHT22;1667;53.238;10.394;2023-05-27T17:01:27;25.90;58.70
3310;DHT22;1667;53.238;10.394;2023-05-27T17:06:25;25.80;59.30
3310;DHT22;1667;53.238;10.394;2023-05-27T17:11:25;25.60;60.20
3310;DHT22;1667;53.238;10.394;2023-05-27T17:16:24;25.50;59.90
3310;DHT22;1667;53.238;10.394;2023-05-27T17:21:22;25.40;60.00
3310;DHT22;1667;53.238;10.394;2023-05-27T17:26:21;25.30;59.80
3310;DHT22;1667;53.238;10.394;2023-05-27T17:31:21;25.10;58.80
3310;DHT22;1667;53.238;10.394;2023-05-27T17:36:20;24.80;59.70
3310;DHT22;1667;53.238;10.394;2023-05-27T17:41:18;24.70;60.90
3310;DHT22;1667;53.238;10.394;2023-05-27T17:46:17;24.60;60.90
3310;DHT22;1667;53.238;10.394;2023-05-27T17:51:16;24.50;60.90
3310;DHT22;1667;53.238;10.394;2023-05-27T17:56:14;24.40;60.80
3310;DHT22;1667;53.238;10.394;2023-05-27T18:01:13;24.00;61.00
3310;DHT22;1667;53.238;10.394;2023-05-27T18:06:12;23.70;60.50
3310;DHT22;1667;53.238;10.394;2023-05-27T18:11:12;23.60;60.80
3310;DHT22;1667;53.238;10.394;2023-05-27T18:16:10;23.50;61.90
3310;DHT22;1667;53.238;10.394;2023-05-27T18:21:09;23.50;62.40
3310;DHT22;1667;53.238;10.394;2023-05-27T18:26:08;23.40;61.40
3310;DHT22;1667;53.238;10.394;2023-05-27T18:31:08;23.40;63.10
3310;DHT22;1667;53.238;10.394;2023-05-27T18:36:06;23.40;62.80
3310;DHT22;1667;53.238;10.394;2023-05-27T18:41:05;23.40;63.50
3310;DHT22;1667;53.238;10.394;2023-05-27T18:46:03;23.40;63.80
3310;DHT22;1667;53.238;10.394;2023-05-27T18:51:03;23.30;63.40
3310;DHT22;1667;53.238;10.394;2023-05-27T18:56:02;23.20;63.70
3310;DHT22;1667;53.238;10.394;2023-05-27T19:01:01;23.10;63.70
3310;DHT22;1667;53.238;10.394;2023-05-27T19:06:00;23.00;64.60
3310;DHT22;1667;53.238;10.394;2023-05-27T19:11:00;22.90;64.60
3310;DHT22;1667;53.238;10.394;2023-05-27T19:15:58;22.90;64.70
3310;DHT22;1667;53.238;10.394;2023-05-27T19:20:57;22.80;64.90
3310;DHT22;1667;53.238;10.394;2023-05-27T19:25:55;22.80;65.20
3310;DHT22;1667;53.238;10.394;2023-05-27T19:30:55;22.70;65.50
3310;DHT22;1667;53.238;10.394;2023-05-27T19:35:54;22.60;66.00
3310;DHT22;1667;53.238;10.394;2023-05-27T19:40:54;22.60;66.40
3310;DHT22;1667;53.238;10.394;2023-05-27T19:45:55;22.50;66.60
3310;DHT22;1667;53.238;10.394;2023-05-27T19:50:53;22.40;66.70
3310;DHT22;1667;53.238;10.394;2023-05-27T19:55:52;22.20;66.70
3310;DHT22;1667;53.238;10.394;2023-05-27T20:00:51;22.10;67.50
3310;DHT22;1667;53.238;10.394;2023-05-27T20:05:51;21.90;67.70
3310;DHT22;1667;53.238;10.394;2023-05-27T20:10:49;21.80;67.70
3310;DHT22;1667;53.238;10.394;2023-05-27T20:15:48;21.60;67.90
3310;DHT22;1667;53.238;10.394;2023-05-27T20:20:46;21.50;68.00
3310;DHT22;1667;53.238;10.394;2023-05-27T20:25:47;21.40;68.40
3310;DHT22;1667;53.238;10.394;2023-05-27T20:36:51;21.10;69.80
3310;DHT22;1667;53.238;10.394;2023-05-27T20:41:51;20.90;69.90
3310;DHT22;1667;53.238;10.394;2023-05-27T20:46:49;20.80;70.50
3310;DHT22;1667;53.238;10.394;2023-05-27T20:51:48;20.70;71.00
3310;DHT22;1667;53.238;10.394;2023-05-27T20:56:47;20.60;70.90
3310;DHT22;1667;53.238;10.394;2023-05-27T21:01:47;20.40;71.40
3310;DHT22;1667;53.238;10.394;2023-05-27T21:06:45;20.30;71.20
3310;DHT22;1667;53.238;10.394;2023-05-27T21:11:44;20.20;71.50
3310;DHT22;1667;53.238;10.394;2023-05-27T21:16:43;20.00;71.60
3310;DHT22;1667;53.238;10.394;2023-05-27T21:21:43;19.90;72.40
3310;DHT22;1667;53.238;10.394;2023-05-27T21:26:42;19.80;72.60
3310;DHT22;1667;53.238;10.394;2023-05-27T21:31:41;19.70;72.80
3310;DHT22;1667;53.238;10.394;2023-05-27T21:36:39;19.60;73.00
3310;DHT22;1667;53.238;10.394;2023-05-27T21:41:39;19.60;73.20
3310;DHT22;1667;53.238;10.394;2023-05-27T21:46:38;19.50;73.60
3310;DHT22;1667;53.238;10.394;2023-05-27T21:51:36;19.30;73.90
3310;DHT22;1667;53.238;10.394;2023-05-27T21:56:35;19.30;74.20
3310;DHT22;1667;53.238;10.394;2023-05-27T22:01:35;19.30;74.70
3310;DHT22;1667;53.238;10.394;2023-05-27T22:06:39;19.20;74.80
3310;DHT22;1667;53.238;10.394;2023-05-27T22:11:38;19.10;75.00
3310;DHT22;1667;53.238;10.394;2023-05-27T22:16:39;19.00;75.30
3310;DHT22;1667;53.238;10.394;2023-05-27T22:21:38;18.90;76.00
3310;DHT22;1667;53.238;10.394;2023-05-27T22:26:36;18.90;76.30
3310;DHT22;1667;53.238;10.394;2023-05-27T22:31:35;18.80;76.20
3310;DHT22;1667;53.238;10.394;2023-05-27T22:36:35;18.80;76.10
3310;DHT22;1667;53.238;10.394;2023-05-27T22:41:34;18.70;76.40
3310;DHT22;1667;53.238;10.394;2023-05-27T22:46:33;18.60;77.00
3310;DHT22;1667;53.238;10.394;2023-05-27T22:51:32;18.50;77.20
3310;DHT22;1667;53.238;10.394;2023-05-27T22:56:32;18.50;77.40
3310;DHT22;1667;53.238;10.394;2023-05-27T23:01:30;18.50;77.70
3310;DHT22;1667;53.238;10.394;2023-05-27T23:06:29;18.40;77.60
3310;DHT22;1667;53.238;10.394;2023-05-27T23:11:28;18.40;77.70
3310;DHT22;1667;53.238;10.394;2023-05-27T23:16:28;18.30;77.50
3310;DHT22;1667;53.238;10.394;2023-05-27T23:21:27;18.30;77.60
3310;DHT22;1667;53.238;10.394;2023-05-27T23:26:26;18.20;77.90
3310;DHT22;1667;53.238;10.394;2023-05-27T23:31:25;18.10;77.80
3310;DHT22;1667;53.238;10.394;2023-05-27T23:36:24;18.10;77.90
3310;DHT22;1667;53.238;10.394;2023-05-27T23:41:23;18.10;77.80
3310;DHT22;1667;53.238;10.394;2023-05-27T23:46:22;18.00;77.70
3310;DHT22;1667;53.238;10.394;2023-05-27T23:51:20;17.90;78.10
3310;DHT22;1667;53.238;10.394;2023-05-27T23:56:20;17.90;77.80
